Time;durP1;ratioP1;P1;durP2;ratioP2;P2;SDS_P1;SDS_P2;PMS_P1;PMS_P2;Temp;Humidity;BMP_temperature;BMP_pressure;BME280_temperature;BME280_humidity;BME280_pressure;Samples;Min_cycle;Max_cycle;Signal;HPM_P1;HPM_P2
2022/06/05 00:00:21;;;;;;;2.47;1.30;;;;;;;17.87;55.83;100324.53;1778003;80;21364;-76
2022/06/05 00:03:16;;;;;;;3.72;1.30;;;;;;;17.91;55.63;100321.00;1781682;79;21130;-77
2022/06/05 00:06:08;;;;;;;4.53;1.50;;;;;;;17.94;55.32;100318.81;1785546;79;21000;-75
2022/06/05 00:09:05;;;;;;;1.57;1.10;;;;;;;18.02;54.90;100319.30;1773586;80;21067;-75
2022/06/05 00:11:55;;;;;;;6.10;1.25;;;;;;;18.11;54.79;100317.44;1774835;80;21749;-73
2022/06/05 00:14:22;;;;;;;2.30;1.27;;;;;;;18.19;54.96;100315.58;1776438;80;21473;-75
2022/06/05 00:16:49;;;;;;;1.77;1.15;;;;;;;18.22;55.38;100313.05;1773748;80;21529;-75
2022/06/05 00:19:16;;;;;;;1.55;1.32;;;;;;;18.20;55.81;100312.39;1782515;80;20912;-75
2022/06/05 00:21:43;;;;;;;2.27;1.30;;;;;;;18.14;55.95;100321.09;1777379;80;21052;-76
2022/06/05 00:24:10;;;;;;;2.27;1.20;;;;;;;18.03;56.05;100316.45;1778096;80;22519;-75
2022/06/05 00:26:44;;;;;;;2.90;1.20;;;;;;;17.96;56.33;100315.48;1781821;80;20988;-75
2022/06/05 00:29:34;;;;;;;2.05;1.00;;;;;;;17.92;56.42;100310.64;1782193;80;21055;-75
2022/06/05 00:32:17;;;;;;;3.50;1.25;;;;;;;17.90;56.54;100307.31;1774972;80;21063;-75
2022/06/05 00:34:43;;;;;;;2.85;1.42;;;;;;;17.86;56.44;100307.33;1778318;80;21581;-75
2022/06/05 00:37:18;;;;;;;2.55;1.20;;;;;;;17.84;56.58;100302.64;1785785;80;21886;-74
2022/06/05 00:39:57;;;;;;;2.17;1.20;;;;;;;17.82;56.72;100293.46;1771859;79;21011;-75
2022/06/05 00:42:25;;;;;;;3.00;1.17;;;;;;;17.81;56.82;100294.47;1758983;80;21521;-76
2022/06/05 00:44:55;;;;;;;4.00;1.35;;;;;;;17.81;56.73;100286.95;1770676;79;20992;-76
2022/06/05 00:47:28;;;;;;;4.20;1.10;;;;;;;17.81;56.74;100284.29;1781598;80;21040;-74
2022/06/05 00:50:11;;;;;;;1.75;1.10;;;;;;;17.81;56.68;100280.28;1777249;80;22618;-75
2022/06/05 00:52:41;;;;;;;3.27;1.12;;;;;;;17.82;56.63;100277.43;1762002;80;21059;-76
2022/06/05 00:55:09;;;;;;;3.33;1.10;;;;;;;17.85;56.67;100268.23;1764808;80;21040;-76
2022/06/05 00:57:37;;;;;;;1.95;1.20;;;;;;;17.88;56.47;100262.56;1767259;80;21168;-80
2022/06/05 01:00:24;;;;;;;2.67;1.30;;;;;;;17.91;56.47;100263.05;1751349;80;20992;-76
2022/06/05 01:02:57;;;;;;;4.85;1.30;;;;;;;17.89;56.59;100262.39;1754873;80;22064;-75
2022/06/05 01:05:26;;;;;;;3.62;1.30;;;;;;;17.90;56.45;100260.05;1760980;80;21078;-76
2022/06/05 01:07:53;;;;;;;2.80;1.30;;;;;;;17.91;56.67;100259.55;1774014;78;20992;-75
2022/06/05 01:10:24;;;;;;;4.00;1.27;;;;;;;17.88;56.80;100264.73;1774344;80;20929;-76
2022/06/05 01:13:19;;;;;;;3.42;1.20;;;;;;;17.87;57.02;100259.06;1779509;79;21027;-75
2022/06/05 01:16:07;;;;;;;3.42;1.10;;;;;;;17.87;56.96;100253.72;1787044;79;21796;-75
2022/06/05 01:18:51;;;;;;;1.25;1.10;;;;;;;17.84;57.07;100243.86;1744949;81;21012;-75
2022/06/05 01:21:56;;;;;;;5.25;1.30;;;;;;;17.82;57.25;100240.03;1762594;81;21327;-75
2022/06/05 01:24:53;;;;;;;1.77;1.10;;;;;;;17.82;57.27;100237.36;1770844;80;21632;-73
2022/06/05 01:27:24;;;;;;;2.02;1.20;;;;;;;17.81;57.15;100228.18;1778497;79;20929;-73
2022/06/05 01:29:54;;;;;;;2.80;1.37;;;;;;;17.80;57.05;100234.53;1777559;80;21942;-74
2022/06/05 01:32:29;;;;;;;1.45;0.95;;;;;;;17.80;56.98;100234.53;1759025;80;21090;-74
2022/06/05 01:34:59;;;;;;;1.85;1.10;;;;;;;17.80;57.08;100230.02;1759128;80;20966;-75
2022/06/05 01:37:38;;;;;;;1.42;0.90;;;;;;;17.78;57.41;100233.37;1772830;80;21019;-74
2022/06/05 01:40:15;;;;;;;3.98;1.20;;;;;;;17.74;57.47;100231.53;1765047;79;21010;-75
2022/06/05 01:42:50;;;;;;;3.50;1.32;;;;;;;17.72;57.66;100228.70;1739484;81;22007;-75
2022/06/05 01:45:37;;;;;;;1.52;1.07;;;;;;;17.67;57.96;100231.05;1734794;81;20948;-74
2022/06/05 01:48:04;;;;;;;2.92;1.30;;;;;;;17.62;58.24;100222.70;1761667;81;21000;-77
2022/06/05 01:50:46;;;;;;;3.42;1.40;;;;;;;17.59;58.43;100227.88;1746282;81;20975;-75
2022/06/05 01:53:38;;;;;;;1.72;1.20;;;;;;;17.58;58.70;100222.72;1733828;81;21359;-77
2022/06/05 01:56:31;;;;;;;4.22;1.22;;;;;;;17.55;59.00;100235.05;1746630;81;21854;-75
2022/06/05 01:59:10;;;;;;;2.65;1.10;;;;;;;17.51;59.13;100236.41;1732472;81;21043;-76
2022/06/05 02:01:39;;;;;;;5.75;1.50;;;;;;;17.48;59.38;100236.26;1732211;81;21036;-75
2022/06/05 02:04:23;;;;;;;3.15;1.30;;;;;;;17.44;59.72;100231.73;1787006;79;20968;-77
2022/06/05 02:06:57;;;;;;;3.42;1.37;;;;;;;17.43;59.87;100224.73;1769004;79;37946;-75
2022/06/05 02:09:31;;;;;;;4.40;1.52;;;;;;;17.41;60.01;100218.73;1781413;78;21799;-77
2022/06/05 02:11:59;;;;;;;2.90;1.27;;;;;;;17.39;59.94;100207.40;1791598;79;21644;-75
2022/06/05 02:14:27;;;;;;;2.67;1.40;;;;;;;17.38;59.90;100200.39;1780180;79;21466;-75
2022/06/05 02:16:54;;;;;;;4.53;1.42;;;;;;;17.39;60.02;100206.56;1761778;81;21011;-75
2022/06/05 02:19:21;;;;;;;2.50;1.40;;;;;;;17.37;60.15;100201.88;1749192;81;21351;-76
2022/06/05 02:21:50;;;;;;;2.35;1.30;;;;;;;17.36;60.33;100209.55;1745208;81;21787;-76
2022/06/05 02:24:17;;;;;;;3.52;1.35;;;;;;;17.36;60.46;100212.22;1742406;81;21009;-76
2022/06/05 02:26:43;;;;;;;3.75;1.52;;;;;;;17.34;60.54;100212.91;1750842;81;21146;-76
2022/06/05 02:29:21;;;;;;;3.47;1.60;;;;;;;17.31;60.53;100210.58;1756436;81;21352;-75
2022/06/05 02:32:17;;;;;;;2.10;1.40;;;;;;;17.30;60.71;100219.09;1747657;81;21078;-75
2022/06/05 02:35:08;;;;;;;1.50;1.25;;;;;;;17.28;61.00;100221.61;1707180;81;21856;-77
2022/06/05 02:38:27;;;;;;;2.77;1.40;;;;;;;17.26;61.22;100232.42;1722454;81;21617;-76
2022/06/05 02:41:08;;;;;;;3.83;1.60;;;;;;;17.24;61.53;100233.60;1733954;81;21063;-76
2022/06/05 02:46:52;;;;;;;2.22;1.05;;;;;;;17.25;61.85;100217.41;1742044;81;20928;-75
2022/06/05 02:49:47;;;;;;;3.65;1.35;;;;;;;17.30;62.10;100215.59;1736496;81;22513;-78
2022/06/05 02:52:14;;;;;;;2.00;1.40;;;;;;;17.33;62.28;100215.24;1747977;80;21506;-75
2022/06/05 02:54:48;;;;;;;3.05;1.30;;;;;;;17.37;62.44;100220.56;1738571;81;21020;-75
2022/06/05 02:57:15;;;;;;;1.87;1.30;;;;;;;17.38;62.49;100218.25;1715363;81;21016;-75
2022/06/05 02:59:41;;;;;;;4.78;1.30;;;;;;;17.41;62.60;100213.90;1715457;81;20979;-76
2022/06/05 03:04:53;;;;;;;4.12;1.40;;;;;;;17.48;62.84;100208.72;1740372;81;20991;-75
2022/06/05 03:07:20;;;;;;;1.98;1.30;;;;;;;17.52;62.95;100208.70;1748025;81;21444;-75
2022/06/05 03:09:48;;;;;;;2.90;1.30;;;;;;;17.55;63.04;100210.52;1745587;81;21023;-78
2022/06/05 03:12:17;;;;;;;2.27;1.27;;;;;;;17.59;63.08;100209.19;1756034;80;21110;-77
2022/06/05 03:14:44;;;;;;;3.98;1.25;;;;;;;17.62;63.27;100202.66;1752777;80;22596;-76
2022/06/05 03:17:11;;;;;;;2.72;1.27;;;;;;;17.67;63.41;100214.52;1777008;80;21355;-77
2022/06/05 03:19:41;;;;;;;1.72;1.27;;;;;;;17.72;63.60;100214.02;1786366;80;21378;-76
2022/06/05 03:22:08;;;;;;;2.67;1.47;;;;;;;17.77;63.72;100210.34;1785079;80;21028;-78
2022/06/05 03:24:35;;;;;;;6.78;1.50;;;;;;;17.83;63.79;100207.46;1741584;80;21046;-75
2022/06/05 03:27:03;;;;;;;3.58;1.50;;;;;;;17.88;63.83;100211.80;1770047;78;21775;-75
2022/06/05 03:29:34;;;;;;;2.45;1.50;;;;;;;17.93;63.93;100214.27;1779843;80;20968;-75
2022/06/05 03:32:00;;;;;;;2.75;1.20;;;;;;;17.99;64.01;100209.58;1776945;79;20940;-75
2022/06/05 03:34:28;;;;;;;1.60;1.45;;;;;;;18.06;64.14;100201.70;1776436;80;20965;-75
2022/06/05 03:36:55;;;;;;;2.00;1.30;;;;;;;18.14;64.09;100189.61;1735216;80;21059;-75
2022/06/05 03:39:22;;;;;;;4.85;1.37;;;;;;;18.22;63.88;100180.72;1763730;80;21800;-76
2022/06/05 03:41:49;;;;;;;4.05;1.42;;;;;;;18.30;63.60;100176.16;1784873;80;20944;-75
2022/06/05 03:44:16;;;;;;;2.40;1.35;;;;;;;18.39;63.26;100173.44;1777963;80;21038;-75
2022/06/05 03:46:42;;;;;;;2.65;1.10;;;;;;;18.47;62.79;100169.37;1762940;80;20991;-75
2022/06/05 03:49:10;;;;;;;3.67;1.37;;;;;;;18.55;62.41;100170.16;1783409;80;21063;-75
2022/06/05 03:51:38;;;;;;;3.10;1.22;;;;;;;18.63;62.01;100174.62;1769614;80;21856;-74
2022/06/05 03:54:05;;;;;;;3.40;1.30;;;;;;;18.70;61.77;100178.76;1772757;79;20964;-74
2022/06/05 03:56:31;;;;;;;2.52;1.30;;;;;;;18.75;61.55;100169.20;1790836;80;20944;-74
2022/06/05 03:58:58;;;;;;;2.30;1.20;;;;;;;18.80;61.29;100174.00;1774847;80;21447;-73
2022/06/05 04:01:28;;;;;;;2.12;1.30;;;;;;;18.82;61.09;100185.38;1775493;80;21042;-74
2022/06/05 04:03:56;;;;;;;3.30;1.30;;;;;;;18.86;60.80;100190.17;1790091;80;21869;-75
2022/06/05 04:06:29;;;;;;;3.45;1.40;;;;;;;18.85;60.52;100193.86;1763449;80;21185;-74
2022/06/05 04:08:59;;;;;;;2.83;1.25;;;;;;;18.86;60.53;100200.05;1770620;80;20949;-74
2022/06/05 04:11:28;;;;;;;3.30;1.37;;;;;;;18.88;60.34;100193.50;1791309;80;20972;-74
2022/06/05 04:13:54;;;;;;;2.70;1.30;;;;;;;18.91;60.27;100206.19;1769932;79;21048;-74
2022/06/05 04:16:25;;;;;;;2.62;1.32;;;;;;;18.91;60.12;100199.49;1778664;80;21048;-74
2022/06/05 04:18:52;;;;;;;1.95;1.35;;;;;;;18.93;60.07;100198.83;1741858;80;22283;-75
2022/06/05 04:21:25;;;;;;;3.20;1.20;;;;;;;18.96;60.02;100196.62;1757994;80;20984;-76
2022/06/05 04:23:51;;;;;;;2.92;1.40;;;;;;;18.98;59.83;100195.09;1782606;80;21040;-76
2022/06/05 04:26:21;;;;;;;1.40;1.30;;;;;;;19.01;59.66;100194.72;1784294;80;20958;-78
2022/06/05 04:28:48;;;;;;;2.95;1.40;;;;;;;19.04;59.64;100189.03;1771946;80;21937;-75
2022/06/05 04:31:28;;;;;;;3.08;1.35;;;;;;;19.04;59.58;100177.81;1767743;80;21028;-75
2022/06/05 04:33:57;;;;;;;2.50;1.40;;;;;;;19.09;59.64;100179.93;1777841;80;20989;-75
2022/06/05 04:36:24;;;;;;;6.22;1.60;;;;;;;19.13;59.54;100184.76;1776242;79;20997;-75
2022/06/05 04:38:51;;;;;;;4.30;1.65;;;;;;;19.16;59.40;100180.88;1762186;80;21370;-75
2022/06/05 04:41:21;;;;;;;3.58;1.62;;;;;;;19.21;59.48;100179.01;1759245;80;22572;-75
2022/06/05 04:43:48;;;;;;;1.80;1.32;;;;;;;19.24;59.42;100174.62;1770971;80;22266;-75
2022/06/05 04:46:17;;;;;;;4.53;1.55;;;;;;;19.31;59.44;100174.22;1786484;79;21490;-75
2022/06/05 04:48:45;;;;;;;4.40;1.65;;;;;;;19.41;59.40;100173.44;1781090;80;21026;-75
2022/06/05 04:51:15;;;;;;;2.87;1.82;;;;;;;19.51;59.31;100177.19;1779715;80;21008;-75
2022/06/05 04:53:42;;;;;;;2.75;1.80;;;;;;;19.58;59.18;100180.28;1771992;79;21423;-76
2022/06/05 04:56:12;;;;;;;5.15;2.00;;;;;;;19.64;59.14;100183.58;1786068;80;21056;-76
2022/06/05 04:58:40;;;;;;;3.52;2.10;;;;;;;19.66;59.06;100182.05;1773488;80;21067;-76
2022/06/05 05:01:18;;;;;;;2.65;1.90;;;;;;;19.70;59.12;100176.66;1772297;80;20961;-76
2022/06/05 05:03:45;;;;;;;3.27;1.92;;;;;;;19.73;59.21;100184.31;1747631;81;20992;-75
2022/06/05 05:06:12;;;;;;;4.80;1.50;;;;;;;19.79;59.24;100184.92;1782239;80;21933;-75
2022/06/05 05:08:40;;;;;;;5.05;2.08;;;;;;;19.88;59.02;100189.65;1759457;80;20949;-76
2022/06/05 05:11:07;;;;;;;2.90;1.55;;;;;;;19.91;59.08;100192.81;1773101;80;21031;-76
2022/06/05 05:13:34;;;;;;;2.75;1.60;;;;;;;19.98;58.98;100193.73;1739175;81;21004;-76
2022/06/05 05:16:01;;;;;;;3.00;1.45;;;;;;;20.10;58.93;100198.09;1745749;81;21070;-76
2022/06/05 05:18:29;;;;;;;3.10;1.50;;;;;;;20.24;58.66;100199.08;1743312;81;21936;-77
2022/06/05 05:21:09;;;;;;;3.15;1.40;;;;;;;20.35;58.36;100198.58;1749864;81;21001;-75
2022/06/05 05:23:36;;;;;;;3.37;1.35;;;;;;;20.47;58.32;100194.94;1744657;80;21406;-76
2022/06/05 05:26:20;;;;;;;1.47;1.30;;;;;;;20.62;58.15;100197.55;1783233;80;21004;-75
2022/06/05 05:28:47;;;;;;;;;;;;;;;20.72;57.69;100192.19;1788443;80;21084;-75
2022/06/05 05:31:23;;;;;;;4.72;1.30;;;;;;;20.82;57.62;100190.52;1776212;80;21783;-76
2022/06/05 05:33:50;;;;;;;2.70;1.20;;;;;;;20.89;57.41;100196.78;1771764;78;20965;-75
2022/06/05 05:36:18;;;;;;;4.08;1.52;;;;;;;20.93;57.29;100196.70;1756383;81;21016;-76
2022/06/05 05:44:17;;;;;;;1.85;1.30;;;;;;;21.01;56.70;100195.23;1752101;81;22529;-75
2022/06/05 05:46:43;;;;;;;3.58;1.30;;;;;;;21.06;56.55;100200.03;1759504;80;20957;-75
2022/06/05 05:49:10;;;;;;;3.40;1.60;;;;;;;21.05;55.92;100201.89;1766984;80;20953;-76
2022/06/05 05:51:37;;;;;;;3.98;1.27;;;;;;;20.99;55.72;100208.03;1744575;80;21055;-76
2022/06/05 05:54:05;;;;;;;3.35;1.30;;;;;;;20.99;55.85;100206.69;1734123;81;21011;-76
2022/06/05 05:56:31;;;;;;;2.30;1.20;;;;;;;21.07;56.05;100210.58;1760303;80;21853;-75
2022/06/05 05:58:58;;;;;;;3.05;1.37;;;;;;;21.16;55.60;100209.93;1775173;80;21051;-75
2022/06/05 06:01:25;;;;;;;3.98;1.40;;;;;;;21.22;55.34;100210.47;1786174;80;20965;-75
2022/06/05 06:03:51;;;;;;;3.75;1.22;;;;;;;21.24;54.64;100223.73;1782452;80;20980;-75
2022/06/05 06:06:27;;;;;;;3.20;1.40;;;;;;;21.21;54.43;100222.25;1769444;80;21023;-75
2022/06/05 06:08:55;;;;;;;6.37;1.40;;;;;;;21.20;54.14;100225.96;1734164;81;21766;-75
2022/06/05 06:11:24;;;;;;;2.22;1.10;;;;;;;21.14;54.10;100228.93;1786135;80;21027;-75
2022/06/05 06:13:51;;;;;;;4.15;1.60;;;;;;;21.13;54.01;100231.30;1777096;79;20997;-76
2022/06/05 06:16:19;;;;;;;2.02;1.20;;;;;;;21.14;54.09;100229.44;1759455;80;20945;-75
2022/06/05 06:18:45;;;;;;;1.57;1.20;;;;;;;21.19;54.44;100232.88;1778699;78;21046;-75
2022/06/05 06:21:13;;;;;;;2.17;1.30;;;;;;;21.27;54.56;100226.05;1778350;80;21926;-75
2022/06/05 06:23:39;;;;;;;3.50;1.40;;;;;;;21.34;54.70;100229.12;1770538;80;21470;-75
2022/06/05 06:26:07;;;;;;;5.72;1.25;;;;;;;21.40;54.47;100221.59;1730435;81;21498;-75
2022/06/05 06:28:33;;;;;;;2.95;1.42;;;;;;;21.48;54.35;100221.97;1776589;80;21007;-76
2022/06/05 06:31:10;;;;;;;2.67;1.20;;;;;;;21.58;54.06;100224.30;1760443;80;20999;-75
2022/06/05 06:33:37;;;;;;;3.42;1.32;;;;;;;21.64;53.45;100228.39;1764105;80;22658;-76
2022/06/05 06:36:07;;;;;;;2.85;1.40;;;;;;;21.60;52.79;100223.08;1782442;80;21046;-76
2022/06/05 06:38:35;;;;;;;3.02;1.40;;;;;;;21.55;52.71;100222.85;1786082;80;21000;-75
2022/06/05 06:41:10;;;;;;;2.75;1.50;;;;;;;21.55;53.06;100220.68;1775274;80;21019;-75
2022/06/05 06:43:37;;;;;;;2.12;1.32;;;;;;;21.56;53.13;100223.16;1759167;79;20993;-75
2022/06/05 06:46:04;;;;;;;5.53;1.20;;;;;;;21.55;53.21;100220.16;1750255;80;21876;-75
2022/06/05 06:48:31;;;;;;;3.60;1.35;;;;;;;21.56;53.05;100220.48;1763438;80;21008;-76
2022/06/05 06:50:59;;;;;;;2.95;1.40;;;;;;;21.55;52.91;100221.51;1764225;80;21377;-75
2022/06/05 06:53:26;;;;;;;3.00;1.35;;;;;;;21.56;52.77;100221.82;1771261;80;20961;-76
2022/06/05 06:55:53;;;;;;;3.77;1.40;;;;;;;21.59;52.82;100228.14;1775682;78;21044;-75
2022/06/05 06:58:20;;;;;;;1.77;1.30;;;;;;;21.61;52.82;100230.11;1788382;79;21935;-75
2022/06/05 07:00:46;;;;;;;6.22;1.40;;;;;;;21.70;52.53;100232.12;1781723;80;21011;-76
2022/06/05 07:03:13;;;;;;;2.17;1.27;;;;;;;21.74;51.59;100232.58;1777839;78;21007;-76
2022/06/05 07:05:40;;;;;;;3.15;1.40;;;;;;;21.73;51.73;100235.79;1738017;81;21028;-75
2022/06/05 07:08:09;;;;;;;1.87;1.40;;;;;;;21.80;51.88;100236.64;1772348;80;20937;-77
2022/06/05 07:10:37;;;;;;;3.92;1.60;;;;;;;21.82;50.99;100234.60;1788428;78;21800;-75
2022/06/05 07:13:06;;;;;;;3.25;1.40;;;;;;;21.80;50.91;100236.64;1773381;79;21476;-77
2022/06/05 07:15:35;;;;;;;2.00;1.47;;;;;;;21.87;51.01;100240.72;1786083;79;21027;-76
2022/06/05 07:18:05;;;;;;;3.20;1.47;;;;;;;21.96;50.87;100246.25;1781720;79;21437;-75
2022/06/05 07:20:41;;;;;;;4.28;1.40;;;;;;;22.04;50.11;100243.39;1744637;81;21480;-76
2022/06/05 07:23:08;;;;;;;3.40;1.35;;;;;;;22.12;50.41;100239.75;1748562;81;21898;-76
2022/06/05 07:25:37;;;;;;;2.85;1.20;;;;;;;22.27;50.37;100241.76;1752908;81;21008;-76
2022/06/05 07:28:05;;;;;;;4.58;1.50;;;;;;;22.40;49.93;100241.83;1745079;81;21420;-76
2022/06/05 07:30:33;;;;;;;5.35;1.57;;;;;;;22.53;49.49;100253.97;1733213;81;21534;-77
2022/06/05 07:33:02;;;;;;;1.98;1.20;;;;;;;22.64;49.33;100256.58;1749989;81;21431;-75
2022/06/05 07:35:28;;;;;;;4.50;1.50;;;;;;;22.78;49.20;100258.30;1751477;80;22266;-76
2022/06/05 07:37:55;;;;;;;4.60;1.40;;;;;;;22.87;48.50;100260.80;1745898;79;21012;-75
2022/06/05 07:40:23;;;;;;;2.22;1.40;;;;;;;22.91;48.04;100256.16;1713115;81;21111;-77
2022/06/05 07:42:50;;;;;;;3.83;1.60;;;;;;;22.87;47.57;100253.55;1737684;81;21112;-74
2022/06/05 07:45:16;;;;;;;4.40;1.67;;;;;;;22.81;47.12;100251.66;1729705;81;21079;-74
2022/06/05 07:47:44;;;;;;;3.37;1.30;;;;;;;22.77;47.73;100255.78;1742881;80;21791;-76
2022/06/05 07:50:13;;;;;;;3.33;1.25;;;;;;;22.81;47.48;100253.00;1743582;81;21036;-74
2022/06/05 07:55:26;;;;;;;4.83;1.50;;;;;;;22.91;47.04;100248.08;1739164;81;21041;-74
2022/06/05 07:57:53;;;;;;;2.62;1.40;;;;;;;23.03;47.35;100253.68;1740608;80;21466;-74
2022/06/05 08:00:21;;;;;;;5.00;1.52;;;;;;;23.13;47.24;100247.37;1752486;80;21791;-74
2022/06/05 08:02:48;;;;;;;2.87;1.35;;;;;;;23.24;46.91;100251.30;1753534;81;21122;-78
2022/06/05 08:05:14;;;;;;;6.55;1.37;;;;;;;23.28;46.39;100243.96;1755140;81;21474;-74
2022/06/05 08:07:41;;;;;;;5.92;1.40;;;;;;;23.27;46.02;100248.22;1754546;80;21052;-73
2022/06/05 08:10:08;;;;;;;1.77;1.20;;;;;;;23.25;45.82;100233.58;1752091;80;21087;-74
2022/06/05 08:12:36;;;;;;;4.87;1.40;;;;;;;23.28;45.86;100237.22;1747611;80;22024;-75
2022/06/05 08:15:10;;;;;;;2.67;1.30;;;;;;;23.32;45.35;100233.58;1729826;81;22222;-75
2022/06/05 08:17:36;;;;;;;1.95;1.20;;;;;;;23.31;44.67;100233.28;1744607;82;21044;-78
2022/06/05 08:20:07;;;;;;;9.55;1.50;;;;;;;23.31;43.63;100236.80;1731695;81;21104;-75
2022/06/05 08:22:34;;;;;;;4.03;1.42;;;;;;;23.26;43.21;100239.30;1714672;82;21099;-74
2022/06/05 08:25:00;;;;;;;6.03;1.70;;;;;;;23.21;43.58;100235.04;1747667;81;22415;-71
2022/06/05 08:27:27;;;;;;;2.25;1.20;;;;;;;23.13;43.12;100231.20;1732246;81;21353;-76
2022/06/05 08:29:55;;;;;;;4.25;1.40;;;;;;;23.03;43.42;100232.13;1728696;82;21055;-74
2022/06/05 08:32:23;;;;;;;1.92;1.20;;;;;;;22.95;43.45;100229.63;1727140;81;21496;-74
2022/06/05 08:34:50;;;;;;;3.92;1.35;;;;;;;22.90;44.08;100237.00;1735731;81;21498;-74
2022/06/05 08:43:12;;;;;;;5.47;1.50;;;;;;;22.68;43.60;100234.97;1738523;81;21025;-74
2022/06/05 08:45:51;;;;;;;2.98;1.30;;;;;;;22.68;44.21;100231.42;1745997;81;21712;-74
2022/06/05 08:48:28;;;;;;;3.65;1.50;;;;;;;22.67;44.75;100225.73;1728441;82;21071;-74
2022/06/05 08:51:00;;;;;;;4.53;1.30;;;;;;;22.67;45.88;100221.69;1735565;81;21806;-75
2022/06/05 08:53:59;;;;;;;3.55;1.40;;;;;;;22.71;45.99;100224.30;1750162;82;21013;-72
2022/06/05 08:56:36;;;;;;;3.75;1.30;;;;;;;22.62;45.51;100223.66;1739018;82;21107;-72
2022/06/05 08:59:17;;;;;;;5.62;1.30;;;;;;;22.52;45.78;100221.36;1730197;82;21080;-74
2022/06/05 09:01:50;;;;;;;2.17;1.30;;;;;;;22.49;45.71;100219.60;1717617;82;21047;-76
2022/06/05 09:04:28;;;;;;;3.08;1.30;;;;;;;22.47;44.78;100222.47;1740608;82;21924;-73
2022/06/05 09:07:00;;;;;;;5.92;1.50;;;;;;;22.46;45.25;100213.26;1710153;82;21047;-73
2022/06/05 09:09:31;;;;;;;4.12;1.57;;;;;;;22.53;45.59;100210.08;1741380;82;21049;-73
2022/06/05 09:12:27;;;;;;;2.35;1.50;;;;;;;22.57;45.74;100208.10;1714107;82;21475;-75
2022/06/05 09:15:24;;;;;;;6.10;1.85;;;;;;;22.53;45.68;100204.69;1738382;81;20940;-73
2022/06/05 09:17:59;;;;;;;3.55;1.70;;;;;;;22.44;45.90;100197.31;1732289;82;22778;-75
2022/06/05 09:20:37;;;;;;;3.58;1.50;;;;;;;22.36;46.34;100199.36;1737952;82;21033;-72
2022/06/05 09:23:09;;;;;;;4.15;1.50;;;;;;;22.34;46.55;100198.73;1717332;82;21063;-72
2022/06/05 09:25:47;;;;;;;4.62;1.50;;;;;;;22.30;46.48;100195.64;1721462;83;21013;-72
2022/06/05 09:28:38;;;;;;;4.35;1.50;;;;;;;22.30;46.71;100189.42;1728485;82;21041;-72
2022/06/05 09:31:51;;;;;;;4.08;1.72;;;;;;;22.33;46.61;100185.80;1734181;82;21944;-73
2022/06/05 09:34:38;;;;;;;2.62;1.60;;;;;;;22.34;46.50;100189.32;1743494;82;22238;-72
2022/06/05 09:37:32;;;;;;;5.65;1.50;;;;;;;22.31;46.68;100189.73;1748226;82;20988;-72
2022/06/05 09:40:04;;;;;;;7.60;1.70;;;;;;;22.29;46.82;100187.22;1722015;83;20973;-70
2022/06/05 09:43:10;;;;;;;2.87;1.67;;;;;;;22.32;47.69;100180.63;1720256;82;21154;-71
2022/06/05 09:45:47;;;;;;;4.65;1.85;;;;;;;22.32;47.88;100180.63;1722621;83;21908;-71
2022/06/05 09:48:55;;;;;;;2.95;1.70;;;;;;;22.25;48.16;100184.13;1733847;82;21497;-71
2022/06/05 09:51:22;;;;;;;3.17;1.60;;;;;;;22.19;48.71;100181.40;1741167;82;20940;-71
2022/06/05 09:53:56;;;;;;;7.30;1.60;;;;;;;22.12;48.97;100179.22;1735828;82;20980;-71
2022/06/05 09:59:55;;;;;;;3.83;2.00;;;;;;;22.13;49.59;100178.19;1730805;83;21911;-72
2022/06/05 10:02:22;;;;;;;3.77;2.10;;;;;;;22.22;49.53;100187.74;1730328;83;20947;-71
2022/06/05 10:04:50;;;;;;;5.12;2.10;;;;;;;22.32;49.57;100185.50;1730341;83;20975;-71
2022/06/05 10:07:25;;;;;;;5.55;2.15;;;;;;;22.45;49.49;100191.42;1740544;80;21021;-71
2022/06/05 10:09:51;;;;;;;4.80;2.37;;;;;;;22.48;49.59;100181.58;1744153;81;21602;-71
2022/06/05 10:12:25;;;;;;;7.05;2.12;;;;;;;22.51;49.78;100186.58;1740747;81;22820;-72
2022/06/05 10:15:18;;;;;;;7.87;2.15;;;;;;;22.44;49.57;100189.24;1744047;80;25197;-71
2022/06/05 10:17:56;;;;;;;3.87;1.95;;;;;;;22.47;50.23;100190.17;1764955;81;21484;-71
2022/06/05 10:20:36;;;;;;;4.08;2.30;;;;;;;22.56;50.42;100202.92;1764840;81;21050;-71
2022/06/05 10:23:35;;;;;;;5.00;2.20;;;;;;;22.65;50.50;100195.49;1765085;81;20996;-71
2022/06/05 10:26:31;;;;;;;5.92;2.25;;;;;;;22.70;50.63;100197.07;1756293;80;21688;-72
2022/06/05 10:29:21;;;;;;;12.78;2.00;;;;;;;22.76;50.89;100190.33;1789269;79;20917;-71
2022/06/05 10:32:21;;;;;;;3.42;1.70;;;;;;;22.72;50.70;100190.95;1764292;80;20948;-71
2022/06/05 10:35:09;;;;;;;4.03;2.35;;;;;;;22.81;50.75;100179.78;1764787;80;20940;-71
2022/06/05 10:37:50;;;;;;;4.50;2.12;;;;;;;22.85;50.32;100186.43;1783734;80;20993;-71
2022/06/05 10:40:32;;;;;;;3.02;2.00;;;;;;;22.98;50.83;100191.02;1796324;80;21974;-71
2022/06/05 10:43:22;;;;;;;3.40;2.20;;;;;;;23.13;49.45;100189.44;1778274;80;21359;-71
2022/06/05 10:45:58;;;;;;;4.00;2.00;;;;;;;23.15;49.30;100198.14;1776372;79;20996;-71
2022/06/05 10:48:36;;;;;;;8.00;1.85;;;;;;;23.14;49.49;100195.97;1759054;81;21573;-72
2022/06/05 10:51:08;;;;;;;3.08;1.90;;;;;;;23.17;49.36;100196.09;1769786;80;20996;-71
2022/06/05 10:54:03;;;;;;;2.90;1.93;;;;;;;23.26;49.02;100198.88;1775331;79;21832;-71
2022/06/05 10:56:47;;;;;;;5.97;1.70;;;;;;;23.50;48.46;100193.34;1761634;81;20931;-72
2022/06/05 10:59:59;;;;;;;5.17;2.02;;;;;;;23.88;48.72;100188.60;1723357;81;21016;-71
2022/06/05 11:03:07;;;;;;;3.90;1.77;;;;;;;24.31;47.33;100187.49;1775767;80;21474;-71
2022/06/05 11:06:28;;;;;;;2.77;1.27;;;;;;;24.71;45.93;100189.45;1759375;80;21063;-71
2022/06/05 11:09:12;;;;;;;4.03;1.40;;;;;;;24.91;43.85;100187.95;1759167;81;21833;-71
2022/06/05 11:15:00;;;;;;;4.28;1.37;;;;;;;25.15;41.65;100177.38;1762060;81;20947;-72
2022/06/05 11:17:41;;;;;;;5.20;1.40;;;;;;;25.11;41.62;100182.41;1759087;81;21019;-72
2022/06/05 11:20:23;;;;;;;2.90;1.20;;;;;;;25.13;41.59;100186.23;1772345;80;20988;-74
2022/06/05 11:22:58;;;;;;;14.23;1.98;;;;;;;25.08;41.95;100192.29;1759520;81;22439;-70
2022/06/05 11:25:29;;;;;;;2.37;1.30;;;;;;;25.02;41.20;100192.67;1759088;81;21458;-71
2022/06/05 11:28:26;;;;;;;5.45;1.30;;;;;;;24.91;41.58;100192.00;1727361;83;21009;-70
2022/06/05 11:31:29;;;;;;;2.10;1.30;;;;;;;24.85;42.30;100191.52;1759171;81;21011;-71
2022/06/05 11:34:29;;;;;;;4.87;1.40;;;;;;;24.68;41.86;100195.80;1740723;81;21028;-71
2022/06/05 11:37:18;;;;;;;14.58;1.72;;;;;;;24.49;42.33;100196.22;1763927;79;21828;-71
2022/06/05 11:40:03;;;;;;;5.25;1.52;;;;;;;24.36;42.61;100197.66;1717710;81;21003;-71
2022/06/05 11:42:52;;;;;;;4.22;1.40;;;;;;;24.33;43.24;100194.05;1727968;81;20943;-71
2022/06/05 11:45:53;;;;;;;2.60;1.30;;;;;;;24.33;43.42;100193.53;1759282;81;20959;-71
2022/06/05 11:48:38;;;;;;;4.03;1.40;;;;;;;24.27;43.02;100199.75;1759364;81;20978;-71
2022/06/05 11:51:24;;;;;;;6.85;1.45;;;;;;;24.12;43.17;100201.88;1721282;80;22585;-71
2022/06/05 11:54:11;;;;;;;3.72;1.10;;;;;;;23.98;43.75;100197.07;1779421;80;20977;-71
2022/06/05 11:56:59;;;;;;;4.12;1.50;;;;;;;23.94;44.20;100199.91;1790628;79;20944;-72
2022/06/05 11:59:57;;;;;;;4.15;1.32;;;;;;;23.90;44.23;100199.48;1762015;79;21075;-71
2022/06/05 12:02:56;;;;;;;3.52;1.40;;;;;;;23.81;44.59;100199.92;1788939;78;21043;-71
2022/06/05 12:06:13;;;;;;;10.88;1.67;;;;;;;23.70;44.44;100200.06;1789273;80;22379;-72
2022/06/05 12:08:49;;;;;;;4.70;1.52;;;;;;;23.63;45.29;100203.29;1789776;79;20977;-71
2022/06/05 12:11:27;;;;;;;2.77;1.40;;;;;;;23.63;45.57;100204.64;1788593;80;21417;-71
2022/06/05 12:14:14;;;;;;;1.55;1.25;;;;;;;23.64;44.98;100198.20;1790339;80;21360;-71
2022/06/05 12:17:05;;;;;;;3.33;1.42;;;;;;;23.63;44.70;100201.42;1795567;79;20948;-71
2022/06/05 12:19:37;;;;;;;2.50;1.27;;;;;;;23.65;44.54;100200.72;1796357;80;21839;-71
2022/06/05 12:22:16;;;;;;;3.08;1.30;;;;;;;23.63;44.35;100211.38;1778274;80;21455;-72
2022/06/05 12:24:51;;;;;;;3.62;1.30;;;;;;;23.63;44.47;100203.29;1796437;79;20921;-72
2022/06/05 12:27:20;;;;;;;4.55;1.35;;;;;;;23.64;44.41;100199.06;1762271;80;20952;-72